Time;durP1;ratioP1;P1;durP2;ratioP2;P2;SDS_P1;SDS_P2;PMS_P1;PMS_P2;Temp;Humidity;BMP_temperature;BMP_pressure;BME280_temperature;BME280_humidity;BME280_pressure;Samples;Min_cycle;Max_cycle;Signal;HPM_P1;HPM_P2
2022/10/02 00:02:22;;;;;;;5.20;1.67;;;12.90;99.90;;;;;;5050006;28;20544;-78
2022/10/02 00:04:58;;;;;;;4.00;1.13;;;12.90;99.90;;;;;;5050019;28;20435;-77
2022/10/02 00:07:31;;;;;;;6.57;1.47;;;12.90;99.90;;;;;;5032169;28;20442;-79
2022/10/02 00:10:02;;;;;;;3.50;1.20;;;12.90;99.90;;;;;;5049670;28;20453;-79
2022/10/02 00:12:29;;;;;;;5.00;1.27;;;12.90;99.90;;;;;;5049464;28;21073;-78
2022/10/02 00:15:06;;;;;;;5.17;1.33;;;12.90;99.90;;;;;;5049153;28;20821;-78
2022/10/02 00:17:44;;;;;;;4.03;1.53;;;12.90;99.90;;;;;;5047736;28;20429;-79
2022/10/02 00:20:16;;;;;;;8.87;1.93;;;12.90;99.90;;;;;;5050242;28;20493;-78
2022/10/02 00:23:00;;;;;;;7.03;1.37;;;12.90;99.90;;;;;;5049877;28;20423;-80
2022/10/02 00:25:38;;;;;;;3.73;1.10;;;12.90;99.90;;;;;;5048858;28;20409;-77
2022/10/02 00:28:47;;;;;;;4.60;1.40;;;13.00;99.90;;;;;;5047640;28;20437;-77
2022/10/02 00:31:51;;;;;;;4.00;1.30;;;12.90;99.90;;;;;;5049003;28;21206;-78
2022/10/02 00:34:30;;;;;;;8.10;1.83;;;12.90;99.90;;;;;;5006963;28;20454;-77
2022/10/02 00:37:10;;;;;;;7.80;1.10;;;12.90;99.90;;;;;;5007260;28;20416;-79
2022/10/02 00:40:07;;;;;;;8.07;1.40;;;12.80;99.90;;;;;;5034794;28;20508;-78
2022/10/02 00:43:06;;;;;;;7.23;1.23;;;12.80;99.90;;;;;;5047740;28;20413;-78
2022/10/02 00:45:56;;;;;;;3.40;1.10;;;12.80;99.90;;;;;;5047658;28;20927;-79
2022/10/02 00:48:22;;;;;;;5.50;1.03;;;12.90;99.90;;;;;;5049267;28;20398;-79
2022/10/02 00:50:56;;;;;;;6.07;1.57;;;13.00;99.90;;;;;;5049210;28;20421;-78
2022/10/02 00:53:27;;;;;;;4.40;1.07;;;12.90;99.90;;;;;;5047966;28;20202;-78
2022/10/02 00:56:20;;;;;;;7.20;1.33;;;12.90;99.90;;;;;;5047903;28;20438;-78
2022/10/02 00:59:02;;;;;;;6.77;1.77;;;13.00;99.90;;;;;;5048766;28;20505;-78
2022/10/02 01:01:38;;;;;;;2.57;1.33;;;13.00;99.90;;;;;;5049223;28;20508;-77
2022/10/02 01:04:11;;;;;;;9.80;1.00;;;13.00;99.90;;;;;;5049166;28;20999;-78
2022/10/02 01:06:37;;;;;;;6.23;1.40;;;13.10;99.90;;;;;;5048773;28;20892;-78
2022/10/02 01:09:02;;;;;;;3.07;1.10;;;13.10;99.90;;;;;;5049317;28;20528;-78
2022/10/02 01:11:29;;;;;;;7.27;1.50;;;13.10;99.90;;;;;;5031117;28;20245;-77
2022/10/02 01:13:55;;;;;;;4.40;1.10;;;13.10;99.90;;;;;;5049161;28;20568;-78
2022/10/02 01:16:21;;;;;;;5.07;1.27;;;13.10;99.90;;;;;;5052286;28;20905;-78
2022/10/02 01:18:47;;;;;;;6.37;1.63;;;13.10;99.90;;;;;;5052561;28;20454;-78
2022/10/02 01:21:26;;;;;;;6.40;1.90;;;13.10;99.90;;;;;;5050839;28;20566;-78
2022/10/02 01:24:28;;;;;;;7.37;1.60;;;13.20;99.90;;;;;;5052083;28;20748;-78
2022/10/02 01:26:54;;;;;;;6.57;1.53;;;13.20;99.90;;;;;;5030215;28;20469;-77
2022/10/02 01:29:20;;;;;;;5.97;1.67;;;13.20;99.90;;;;;;5052386;28;20515;-77
2022/10/02 01:31:45;;;;;;;11.17;1.87;;;13.30;99.90;;;;;;5051172;28;20199;-76
2022/10/02 01:34:11;;;;;;;4.10;1.10;;;13.30;99.90;;;;;;5034066;28;20235;-77
2022/10/02 01:36:37;;;;;;;8.53;1.50;;;13.20;99.90;;;;;;5052041;28;20227;-77
2022/10/02 01:39:02;;;;;;;8.63;1.50;;;13.10;99.90;;;;;;5051403;28;20213;-80
2022/10/02 01:41:28;;;;;;;6.60;1.47;;;13.20;99.90;;;;;;5033909;28;20191;-78
2022/10/02 01:44:00;;;;;;;7.93;1.57;;;13.20;99.90;;;;;;5052201;28;20573;-77
2022/10/02 01:46:30;;;;;;;11.03;1.50;;;13.20;99.90;;;;;;5051957;28;20424;-78
2022/10/02 01:49:26;;;;;;;10.33;1.77;;;13.20;99.90;;;;;;5052111;28;20434;-79
2022/10/02 01:52:29;;;;;;;3.67;1.10;;;13.20;99.90;;;;;;5051366;28;20886;-80
2022/10/02 01:55:07;;;;;;;11.13;2.13;;;13.20;99.90;;;;;;5049909;28;20918;-80
2022/10/02 01:57:42;;;;;;;7.67;1.30;;;13.30;99.90;;;;;;5049580;28;20449;-76
2022/10/02 02:00:13;;;;;;;10.93;1.90;;;13.30;99.90;;;;;;5051124;28;20551;-79
2022/10/02 02:02:58;;;;;;;8.03;1.40;;;13.30;99.90;;;;;;5051243;28;20406;-78
2022/10/02 02:05:45;;;;;;;8.77;1.77;;;13.30;99.90;;;;;;5051756;28;20508;-80
2022/10/02 02:08:33;;;;;;;7.80;1.40;;;13.40;99.90;;;;;;5050428;28;20449;-80
2022/10/02 02:11:15;;;;;;;4.87;1.23;;;13.40;99.90;;;;;;5052451;28;20521;-77
2022/10/02 02:14:00;;;;;;;5.70;1.23;;;13.30;99.90;;;;;;5050946;28;20434;-79
2022/10/02 02:16:41;;;;;;;15.07;1.80;;;13.40;99.90;;;;;;5052157;28;20426;-77
2022/10/02 02:19:06;;;;;;;9.60;1.67;;;13.40;99.90;;;;;;5051978;28;20507;-77
2022/10/02 02:21:46;;;;;;;4.80;1.27;;;13.50;99.90;;;;;;5052073;28;20414;-77
2022/10/02 02:24:19;;;;;;;11.57;1.30;;;13.50;99.90;;;;;;5050604;28;20587;-77
2022/10/02 02:26:46;;;;;;;4.40;1.07;;;13.50;99.90;;;;;;5050059;28;20521;-76
2022/10/02 02:29:15;;;;;;;5.30;1.97;;;13.60;99.90;;;;;;5051612;28;20492;-77
2022/10/02 02:31:54;;;;;;;6.97;1.70;;;13.60;99.90;;;;;;5050297;28;20445;-77
2022/10/02 02:34:24;;;;;;;8.77;1.60;;;13.50;99.90;;;;;;5051739;28;20447;-76
2022/10/02 02:36:55;;;;;;;12.23;2.07;;;13.60;99.90;;;;;;5050193;28;20445;-77
2022/10/02 02:39:29;;;;;;;7.80;1.63;;;13.60;99.90;;;;;;5050233;28;20442;-77
2022/10/02 02:41:59;;;;;;;4.97;1.57;;;13.60;99.90;;;;;;5051916;28;20782;-78
2022/10/02 02:44:36;;;;;;;5.37;1.17;;;13.60;99.90;;;;;;5050553;28;20438;-77
2022/10/02 02:47:16;;;;;;;7.33;1.40;;;13.60;99.90;;;;;;5051732;28;20936;-77
2022/10/02 02:49:48;;;;;;;7.70;1.70;;;13.60;99.90;;;;;;5050366;28;20440;-77
2022/10/02 02:52:49;;;;;;;8.87;1.23;;;13.70;99.90;;;;;;5051680;28;20462;-77
2022/10/02 02:55:19;;;;;;;11.27;1.50;;;13.70;99.90;;;;;;5049615;28;20931;-76
2022/10/02 02:58:02;;;;;;;11.63;1.53;;;13.70;99.90;;;;;;5049632;28;20453;-77
2022/10/02 03:00:27;;;;;;;6.80;1.50;;;13.70;99.90;;;;;;5049403;28;20513;-79
2022/10/02 03:02:54;;;;;;;5.83;1.50;;;13.70;99.90;;;;;;5049499;28;20431;-79
2022/10/02 03:05:21;;;;;;;5.03;1.27;;;13.80;99.90;;;;;;5049615;28;20892;-79
2022/10/02 03:07:58;;;;;;;13.37;1.60;;;13.80;99.90;;;;;;5049086;28;20422;-79
2022/10/02 03:10:56;;;;;;;9.03;1.53;;;13.80;99.90;;;;;;5048910;28;21017;-79
2022/10/02 03:13:40;;;;;;;6.07;1.33;;;13.80;99.90;;;;;;5049718;28;20555;-79
2022/10/02 03:16:46;;;;;;;8.47;1.20;;;13.80;99.90;;;;;;5049211;28;20452;-76
2022/10/02 03:19:24;;;;;;;6.87;1.50;;;13.80;99.90;;;;;;5049491;28;20465;-79
2022/10/02 03:22:24;;;;;;;9.30;1.60;;;13.80;99.90;;;;;;5048998;28;20425;-78
2022/10/02 03:25:00;;;;;;;6.73;1.00;;;13.80;99.90;;;;;;5049125;28;20438;-78
2022/10/02 03:27:39;;;;;;;8.03;1.37;;;13.80;99.90;;;;;;5048731;28;20785;-77
2022/10/02 03:30:08;;;;;;;5.57;1.10;;;13.90;99.90;;;;;;5050537;28;20838;-79
2022/10/02 03:32:35;;;;;;;7.13;1.77;;;13.90;99.90;;;;;;5051100;28;20414;-79
2022/10/02 03:35:04;;;;;;;6.37;1.37;;;13.90;99.90;;;;;;5048956;28;20798;-79
2022/10/02 03:37:30;;;;;;;8.27;1.40;;;13.90;99.90;;;;;;5049062;28;20424;-78
2022/10/02 03:40:04;;;;;;;7.33;1.27;;;13.90;99.90;;;;;;5049679;28;20461;-78
2022/10/02 03:42:32;;;;;;;3.40;1.40;;;13.90;99.90;;;;;;5049552;28;20496;-78
2022/10/02 03:44:58;;;;;;;4.67;1.90;;;14.00;99.90;;;;;;5053301;28;20449;-79
2022/10/02 03:47:23;;;;;;;7.63;1.70;;;14.00;99.90;;;;;;5037511;28;20509;-80
2022/10/02 03:49:49;;;;;;;9.47;1.30;;;14.00;99.90;;;;;;5055442;28;20191;-80
2022/10/02 03:52:17;;;;;;;5.27;1.10;;;14.00;99.90;;;;;;5055350;28;20191;-81
2022/10/02 03:54:43;;;;;;;3.90;1.40;;;14.00;99.90;;;;;;5055900;28;20196;-80
2022/10/02 03:57:13;;;;;;;7.20;1.47;;;14.00;99.90;;;;;;5038265;28;20481;-80
2022/10/02 03:59:42;;;;;;;4.20;1.40;;;14.00;99.90;;;;;;5053740;28;20452;-80
2022/10/02 04:02:19;;;;;;;10.40;2.30;;;14.00;99.90;;;;;;5053153;28;20425;-79
2022/10/02 04:04:50;;;;;;;5.37;1.20;;;14.00;99.90;;;;;;5057459;28;20434;-77
2022/10/02 04:07:33;;;;;;;9.63;1.60;;;14.00;99.90;;;;;;5070196;28;20848;-78
2022/10/02 04:10:07;;;;;;;7.13;1.10;;;14.00;99.90;;;;;;5070156;28;20418;-78
2022/10/02 04:12:43;;;;;;;4.40;1.10;;;14.00;99.90;;;;;;5056662;28;20477;-78
2022/10/02 04:15:29;;;;;;;11.20;1.57;;;14.00;99.90;;;;;;5051206;28;20910;-77
2022/10/02 04:18:07;;;;;;;8.73;1.50;;;14.00;99.90;;;;;;5049653;28;20426;-78
2022/10/02 04:20:42;;;;;;;10.40;1.50;;;14.00;99.90;;;;;;5052812;28;20469;-80
2022/10/02 04:23:25;;;;;;;12.00;1.87;;;14.00;99.90;;;;;;5055211;28;20436;-81
2022/10/02 04:25:58;;;;;;;8.27;1.40;;;14.00;99.90;;;;;;5054010;28;20403;-78
2022/10/02 04:28:32;;;;;;;4.97;1.30;;;14.00;99.90;;;;;;5052960;28;20415;-79
2022/10/02 04:31:00;;;;;;;4.33;1.07;;;14.00;99.90;;;;;;5037759;28;21072;-77
2022/10/02 04:33:25;;;;;;;5.37;1.70;;;14.00;99.90;;;;;;5052271;28;21029;-79
2022/10/02 04:36:25;;;;;;;5.53;1.30;;;14.00;99.90;;;;;;5054039;28;20458;-79
2022/10/02 04:39:02;;;;;;;6.83;1.60;;;14.00;99.90;;;;;;5054217;28;20167;-78
2022/10/02 04:41:59;;;;;;;4.40;1.20;;;13.90;99.90;;;;;;5053548;28;20410;-79
2022/10/02 04:45:05;;;;;;;6.13;1.40;;;14.00;99.90;;;;;;5049041;28;20462;-79
2022/10/02 04:47:48;;;;;;;5.63;1.57;;;14.00;99.90;;;;;;5048400;28;20414;-79
2022/10/02 04:50:36;;;;;;;7.43;1.43;;;13.90;99.90;;;;;;5050079;28;20446;-79
2022/10/02 04:53:16;;;;;;;7.33;2.07;;;13.90;99.90;;;;;;5052656;28;20452;-79
2022/10/02 04:56:00;;;;;;;13.97;3.03;;;14.00;99.90;;;;;;5053802;28;20751;-79
2022/10/02 04:58:52;;;;;;;11.77;2.10;;;14.00;99.90;;;;;;5052292;28;20422;-80
2022/10/02 05:01:25;;;;;;;6.83;1.33;;;14.00;99.90;;;;;;5052174;28;20453;-78
2022/10/02 05:04:29;;;;;;;8.30;1.43;;;14.00;99.90;;;;;;5052701;28;21162;-79
2022/10/02 05:07:20;;;;;;;8.33;1.80;;;14.00;99.90;;;;;;5030761;28;20994;-76
2022/10/02 05:09:57;;;;;;;6.40;1.37;;;13.90;99.90;;;;;;5053165;28;20410;-80
2022/10/02 05:12:38;;;;;;;9.03;1.90;;;13.90;99.90;;;;;;5051214;28;20421;-80
2022/10/02 05:15:34;;;;;;;8.17;1.80;;;13.90;99.90;;;;;;5051589;28;20441;-79
2022/10/02 05:18:15;;;;;;;9.03;2.03;;;13.90;99.90;;;;;;5051213;28;20922;-79
2022/10/02 05:21:16;;;;;;;11.03;1.53;;;14.00;99.90;;;;;;5052335;28;20966;-79
2022/10/02 05:23:56;;;;;;;8.10;2.17;;;14.00;99.90;;;;;;5052087;28;20434;-77
2022/10/02 05:26:52;;;;;;;11.60;1.40;;;14.00;99.90;;;;;;5052036;28;20410;-80
2022/10/02 05:29:30;;;;;;;6.10;1.40;;;14.00;99.90;;;;;;5050401;28;20433;-79
2022/10/02 05:32:26;;;;;;;12.67;2.37;;;13.90;99.90;;;;;;5050427;28;20524;-78
2022/10/02 05:35:01;;;;;;;9.57;1.80;;;13.90;99.90;;;;;;5051724;28;20473;-76
2022/10/02 05:37:51;;;;;;;6.90;1.40;;;14.00;99.90;;;;;;5051937;28;20452;-78
2022/10/02 05:40:25;;;;;;;4.87;1.00;;;14.00;99.90;;;;;;5051471;28;20521;-80
2022/10/02 05:43:06;;;;;;;4.40;1.30;;;14.00;99.90;;;;;;5050129;28;20515;-79
2022/10/02 05:46:13;;;;;;;6.13;1.70;;;13.90;99.90;;;;;;5050235;28;20421;-79
2022/10/02 05:48:51;;;;;;;4.73;1.47;;;13.80;99.90;;;;;;5009093;28;20510;-76
2022/10/02 05:51:35;;;;;;;5.37;1.57;;;13.90;99.90;;;;;;5048064;28;20508;-77
2022/10/02 05:54:12;;;;;;;10.57;1.37;;;14.00;99.90;;;;;;5050340;28;20442;-76
2022/10/02 05:56:44;;;;;;;7.60;1.60;;;14.00;99.90;;;;;;5051628;28;20430;-77
2022/10/02 05:59:56;;;;;;;10.70;2.23;;;13.90;99.90;;;;;;5050468;28;20489;-77
2022/10/02 06:03:01;;;;;;;4.10;1.30;;;13.90;99.90;;;;;;5050699;28;20536;-76
2022/10/02 06:05:39;;;;;;;8.50;2.33;;;13.90;99.90;;;;;;5029097;28;20442;-77
2022/10/02 06:08:08;;;;;;;4.13;1.27;;;13.90;99.90;;;;;;5051489;28;20422;-76
2022/10/02 06:10:42;;;;;;;7.07;1.60;;;13.90;99.90;;;;;;5049693;28;20449;-75
2022/10/02 06:13:21;;;;;;;6.40;1.37;;;13.80;99.90;;;;;;5051302;28;20445;-77
2022/10/02 06:16:11;;;;;;;4.93;1.40;;;13.80;99.90;;;;;;5051002;28;20398;-76
2022/10/02 06:18:40;;;;;;;6.90;1.43;;;13.70;99.90;;;;;;5050702;28;20467;-76
2022/10/02 06:21:31;;;;;;;7.00;1.50;;;13.70;99.90;;;;;;5050633;28;20556;-76
2022/10/02 06:24:01;;;;;;;10.43;1.80;;;13.70;99.90;;;;;;5042919;28;20528;-76
2022/10/02 06:26:40;;;;;;;13.63;1.90;;;13.70;99.90;;;;;;5050718;28;20414;-77
2022/10/02 06:29:20;;;;;;;12.83;1.30;;;13.60;99.90;;;;;;5050870;28;20414;-76
2022/10/02 06:32:07;;;;;;;6.53;1.40;;;13.60;99.90;;;;;;5051392;28;20505;-75
2022/10/02 06:34:33;;;;;;;6.87;2.10;;;13.60;99.90;;;;;;5050591;28;20515;-76
2022/10/02 06:37:01;;;;;;;8.33;1.50;;;13.60;99.90;;;;;;5050597;28;20430;-78
2022/10/02 06:39:58;;;;;;;8.00;2.00;;;13.60;99.90;;;;;;5051478;28;20221;-77
2022/10/02 06:42:27;;;;;;;11.93;2.83;;;13.60;99.90;;;;;;5050244;28;20411;-77
2022/10/02 06:45:11;;;;;;;10.53;3.90;;;13.70;99.90;;;;;;5050133;28;20447;-76
2022/10/02 06:48:30;;;;;;;4.40;1.53;;;13.70;99.90;;;;;;5050077;28;20934;-77
2022/10/02 06:51:17;;;;;;;6.93;1.73;;;13.70;99.90;;;;;;5033238;28;21042;-76
2022/10/02 06:54:04;;;;;;;7.73;1.67;;;13.60;99.90;;;;;;5050088;28;20429;-77
2022/10/02 06:56:50;;;;;;;7.33;1.83;;;13.60;99.90;;;;;;5050192;28;20430;-77
2022/10/02 06:59:38;;;;;;;6.77;1.50;;;13.60;99.90;;;;;;5049878;28;20522;-77
2022/10/02 07:02:22;;;;;;;6.73;1.70;;;13.70;99.90;;;;;;5049913;28;20425;-76
2022/10/02 07:05:15;;;;;;;13.87;2.13;;;13.70;99.90;;;;;;5049987;28;20994;-76
2022/10/02 07:07:58;;;;;;;9.10;1.53;;;13.70;99.90;;;;;;5049796;28;20417;-78
2022/10/02 07:10:59;;;;;;;9.13;1.50;;;13.80;99.90;;;;;;5048915;28;20422;-77
2022/10/02 07:13:39;;;;;;;7.50;1.67;;;13.80;99.90;;;;;;5048625;28;20450;-76
2022/10/02 07:16:42;;;;;;;7.50;1.40;;;13.90;99.90;;;;;;5048937;28;21021;-76
2022/10/02 07:19:41;;;;;;;10.23;1.67;;;13.90;99.90;;;;;;5048794;28;20461;-76
2022/10/02 07:22:41;;;;;;;9.80;1.90;;;14.00;99.90;;;;;;5048673;28;20908;-77
2022/10/02 07:25:21;;;;;;;5.50;1.53;;;13.90;99.90;;;;;;5048683;28;20395;-76
2022/10/02 07:28:04;;;;;;;11.83;2.20;;;14.00;99.90;;;;;;5048481;28;20418;-77
2022/10/02 07:30:53;;;;;;;3.37;1.10;;;14.00;99.90;;;;;;5048784;28;20409;-76
2022/10/02 07:33:45;;;;;;;6.57;1.40;;;14.10;99.90;;;;;;5047950;28;20537;-76
2022/10/02 07:36:12;;;;;;;5.17;2.23;;;14.00;99.90;;;;;;5047769;28;20480;-77
2022/10/02 07:38:50;;;;;;;4.70;1.47;;;14.10;99.90;;;;;;5047625;28;20413;-76
2022/10/02 07:41:31;;;;;;;8.63;1.80;;;14.10;99.90;;;;;;5047519;28;21216;-74
2022/10/02 07:44:24;;;;;;;5.40;1.90;;;14.10;99.90;;;;;;5047347;28;20430;-76
2022/10/02 07:47:07;;;;;;;7.07;1.90;;;14.30;99.90;;;;;;5046183;28;20454;-77
2022/10/02 07:49:42;;;;;;;8.27;1.40;;;14.40;99.90;;;;;;5046393;28;20793;-78
2022/10/02 07:52:17;;;;;;;10.47;2.13;;;14.40;99.90;;;;;;5047428;28;20414;-77
2022/10/02 07:55:25;;;;;;;7.17;1.40;;;14.50;99.90;;;;;;5045857;28;20951;-76
2022/10/02 07:58:15;;;;;;;5.80;1.90;;;14.60;99.90;;;;;;5041552;28;21067;-77
2022/10/02 08:00:50;;;;;;;11.30;1.70;;;14.70;99.90;;;;;;5047475;28;20835;-77
2022/10/02 08:03:50;;;;;;;6.97;1.13;;;14.90;99.90;;;;;;5047558;28;20432;-78
2022/10/02 08:06:17;;;;;;;16.10;1.90;;;15.00;99.90;;;;;;5047930;28;20425;-76
2022/10/02 08:09:01;;;;;;;4.53;1.03;;;15.10;99.90;;;;;;5047398;28;20426;-77
2022/10/02 08:11:58;;;;;;;6.93;1.67;;;15.20;99.90;;;;;;5047613;28;20406;-76
2022/10/02 08:14:40;;;;;;;6.50;1.73;;;15.30;99.90;;;;;;5037617;28;20474;-76
2022/10/02 08:17:28;;;;;;;5.37;2.00;;;15.30;99.90;;;;;;5047187;28;20446;-76
2022/10/02 08:20:01;;;;;;;4.10;1.20;;;15.40;99.90;;;;;;5047171;28;20545;-75
2022/10/02 08:22:35;;;;;;;3.60;1.27;;;15.40;99.90;;;;;;5045606;28;20435;-76
2022/10/02 08:25:18;;;;;;;2.90;1.00;;;15.50;99.90;;;;;;5046627;28;20521;-76
2022/10/02 08:28:06;;;;;;;8.40;1.60;;;15.60;99.90;;;;;;5047653;28;20403;-76
2022/10/02 08:30:32;;;;;;;4.03;1.40;;;15.70;99.90;;;;;;5047300;28;20747;-79
2022/10/02 08:32:58;;;;;;;6.53;1.73;;;15.70;99.90;;;;;;5045674;28;20437;-76
2022/10/02 08:35:39;;;;;;;5.77;1.10;;;15.80;99.90;;;;;;5045623;28;20184;-76
2022/10/02 08:38:13;;;;;;;5.00;1.00;;;15.80;99.90;;;;;;5047404;28;20420;-78
2022/10/02 08:40:59;;;;;;;4.73;1.17;;;15.90;99.90;;;;;;5046184;28;20473;-76
2022/10/02 08:43:55;;;;;;;3.30;1.17;;;16.00;99.90;;;;;;5046959;28;20434;-77
2022/10/02 08:46:57;;;;;;;2.77;0.90;;;16.10;99.90;;;;;;5047178;28;20868;-76
2022/10/02 08:49:59;;;;;;;5.63;1.43;;;16.30;99.90;;;;;;5047014;28;20402;-76
2022/10/02 08:52:43;;;;;;;2.40;0.87;;;16.30;99.90;;;;;;5046788;28;20408;-77
2022/10/02 08:55:32;;;;;;;9.13;1.67;;;16.50;99.90;;;;;;5047041;28;20447;-77
2022/10/02 08:58:35;;;;;;;2.50;0.90;;;16.60;99.90;;;;;;5047210;28;20414;-75
2022/10/02 09:01:47;;;;;;;4.30;1.33;;;16.70;99.90;;;;;;5046859;28;20501;-76
2022/10/02 09:04:27;;;;;;;1.93;0.87;;;16.80;99.90;;;;;;5046483;28;20423;-75
2022/10/02 09:06:55;;;;;;;2.03;1.00;;;16.90;99.90;;;;;;5046950;28;20420;-78
2022/10/02 09:09:33;;;;;;;2.83;1.27;;;17.10;99.90;;;;;;5045237;28;20426;-76
2022/10/02 09:12:02;;;;;;;3.07;1.10;;;17.10;99.90;;;;;;5046599;28;20426;-77
2022/10/02 09:14:49;;;;;;;4.43;0.87;;;17.10;99.90;;;;;;5046714;28;20436;-76
2022/10/02 09:17:36;;;;;;;1.50;0.80;;;17.10;99.90;;;;;;5046933;28;20744;-76
2022/10/02 09:20:05;;;;;;;2.20;0.80;;;17.30;99.90;;;;;;5046737;28;20990;-77
2022/10/02 09:22:45;;;;;;;2.03;0.70;;;17.40;99.90;;;;;;5046777;28;20435;-76
2022/10/02 09:25:48;;;;;;;2.10;0.80;;;17.40;99.90;;;;;;5047204;28;20507;-77
2022/10/02 09:28:26;;;;;;;2.83;0.60;;;17.50;99.90;;;;;;5047207;28;20422;-76
2022/10/02 09:31:17;;;;;;;1.57;0.60;;;17.50;99.90;;;;;;5047430;28;20424;-77
2022/10/02 09:34:03;;;;;;;2.23;0.70;;;17.50;99.90;;;;;;5047230;28;20431;-75
2022/10/02 09:36:44;;;;;;;2.60;0.70;;;17.50;99.90;;;;;;5046382;28;20497;-76
2022/10/02 09:39:50;;;;;;;3.63;0.60;;;17.50;99.90;;;;;;5052327;28;20408;-76
2022/10/02 09:42:52;;;;;;;2.27;0.70;;;17.60;99.90;;;;;;5052957;28;20467;-77
2022/10/02 09:45:44;;;;;;;1.63;0.60;;;17.60;99.90;;;;;;5051878;28;20419;-76
2022/10/02 09:48:48;;;;;;;1.30;0.57;;;17.70;99.90;;;;;;5053109;28;20409;-75
2022/10/02 09:51:26;;;;;;;3.63;0.63;;;17.80;99.90;;;;;;5036309;28;20426;-77
2022/10/02 09:54:20;;;;;;;4.23;0.60;;;18.00;99.90;;;;;;5053363;28;20509;-78
2022/10/02 09:57:24;;;;;;;1.60;0.60;;;18.00;99.90;;;;;;5051989;28;21112;-77
2022/10/02 10:00:07;;;;;;;0.80;0.60;;;18.00;99.90;;;;;;5053203;28;20548;-76
2022/10/02 10:02:46;;;;;;;2.50;0.50;;;18.00;99.90;;;;;;5050421;28;20413;-77
2022/10/02 10:05:38;;;;;;;2.13;0.50;;;18.10;99.90;;;;;;5052078;28;20413;-77
2022/10/02 10:08:04;;;;;;;0.90;0.50;;;18.30;99.90;;;;;;5052320;28;20403;-79
2022/10/02 10:10:49;;;;;;;2.20;0.60;;;18.40;99.90;;;;;;5051219;28;20440;-77
2022/10/02 10:13:51;;;;;;;1.43;0.50;;;18.30;99.90;;;;;;5051499;28;20212;-76
2022/10/02 10:16:47;;;;;;;3.73;0.57;;;18.30;99.90;;;;;;5050481;28;20391;-77
2022/10/02 10:19:46;;;;;;;1.00;0.50;;;18.30;99.90;;;;;;5049999;28;20525;-76
2022/10/02 10:22:37;;;;;;;1.03;0.50;;;18.40;99.90;;;;;;5050487;28;20431;-78
2022/10/02 10:25:16;;;;;;;1.47;0.60;;;18.40;99.90;;;;;;5050836;28;20849;-78
2022/10/02 10:28:39;;;;;;;2.30;0.50;;;18.60;99.90;;;;;;5052111;28;20406;-77
2022/10/02 10:31:42;;;;;;;1.10;0.53;;;18.80;99.90;;;;;;5009689;28;20509;-77
2022/10/02 10:34:49;;;;;;;0.80;0.50;;;18.80;99.90;;;;;;5007975;28;20432;-77
2022/10/02 10:40:41;;;;;;;1.20;0.50;;;18.80;99.90;;;;;;5051760;28;20542;-77
2022/10/02 10:43:31;;;;;;;1.00;0.40;;;18.80;99.90;;;;;;5050716;28;20459;-77
2022/10/02 10:46:16;;;;;;;1.10;0.50;;;18.80;99.90;;;;;;5050982;28;20443;-77
2022/10/02 10:49:09;;;;;;;4.77;0.57;;;18.60;99.90;;;;;;5050337;28;20469;-77
2022/10/02 10:51:40;;;;;;;0.70;0.40;;;18.50;99.90;;;;;;5050369;28;20427;-78
2022/10/02 10:54:28;;;;;;;0.90;0.40;;;18.50;99.90;;;;;;5048887;28;20536;-77
2022/10/02 10:57:11;;;;;;;1.00;0.40;;;18.50;99.90;;;;;;5049987;28;20841;-76
2022/10/02 11:00:01;;;;;;;0.97;0.60;;;18.40;99.90;;;;;;5050126;28;20459;-76
2022/10/02 11:03:03;;;;;;;0.70;0.40;;;18.40;99.90;;;;;;5047837;28;20422;-77
2022/10/02 11:06:06;;;;;;;1.00;0.50;;;18.40;99.90;;;;;;5049781;28;20414;-77
2022/10/02 11:08:51;;;;;;;1.87;0.80;;;18.50;99.90;;;;;;5050031;28;20409;-78
2022/10/02 11:11:41;;;;;;;0.70;0.40;;;18.50;99.90;;;;;;5051378;28;20466;-79
2022/10/02 11:14:42;;;;;;;0.77;0.40;;;18.60;99.90;;;;;;5052052;28;20436;-78
2022/10/02 11:17:23;;;;;;;1.20;0.47;;;18.90;99.90;;;;;;5031815;28;20428;-78
2022/10/02 11:19:58;;;;;;;0.70;0.40;;;19.20;99.90;;;;;;5052566;28;20529;-78
2022/10/02 11:22:39;;;;;;;2.40;0.47;;;19.40;99.90;;;;;;5051513;28;20765;-77
2022/10/02 11:25:36;;;;;;;1.50;0.50;;;19.70;99.90;;;;;;5049293;28;20441;-77
2022/10/02 11:28:32;;;;;;;0.70;0.40;;;19.90;99.90;;;;;;5051528;28;20496;-78
2022/10/02 11:31:07;;;;;;;0.70;0.40;;;20.10;99.90;;;;;;5049161;28;20428;-77
2022/10/02 11:34:07;;;;;;;0.70;0.40;;;20.30;99.90;;;;;;5049571;28;20479;-76
2022/10/02 11:36:51;;;;;;;1.43;0.40;;;20.70;99.90;;;;;;5051839;28;20912;-76
2022/10/02 11:39:35;;;;;;;0.97;0.50;;;20.70;99.90;;;;;;5052351;28;20476;-77
2022/10/02 11:42:25;;;;;;;0.70;0.40;;;20.30;99.90;;;;;;5053151;28;20410;-77
2022/10/02 11:44:56;;;;;;;0.73;0.40;;;20.10;99.90;;;;;;5053481;28;20420;-77
2022/10/02 11:47:48;;;;;;;1.83;0.50;;;20.10;99.90;;;;;;5048703;28;20466;-77
2022/10/02 11:50:33;;;;;;;3.00;0.40;;;20.30;99.90;;;;;;5051861;28;20489;-78
2022/10/02 11:53:40;;;;;;;0.70;0.50;;;20.10;99.90;;;;;;5052498;28;20444;-79
2022/10/02 11:56:21;;;;;;;3.13;1.57;;;19.80;99.90;;;;;;4992923;28;20458;-77
2022/10/02 11:59:21;;;;;;;4.93;1.80;;;19.40;99.90;;;;;;5048067;28;20454;-77
2022/10/02 12:02:24;;;;;;;3.97;1.87;;;18.60;99.90;;;;;;5051070;28;20414;-77
2022/10/02 12:05:16;;;;;;;2.80;1.53;;;17.90;99.90;;;;;;5051506;28;20441;-78
2022/10/02 12:08:15;;;;;;;2.70;1.77;;;17.40;99.90;;;;;;5052410;28;20419;-77
2022/10/02 12:10:51;;;;;;;2.93;1.90;;;17.00;99.90;;;;;;5052891;28;20412;-77
2022/10/02 12:13:45;;;;;;;2.17;1.43;;;16.60;99.90;;;;;;5050262;28;20441;-76
2022/10/02 12:16:34;;;;;;;3.00;1.60;;;16.20;99.90;;;;;;5050843;28;20502;-77
2022/10/02 12:19:12;;;;;;;2.90;1.60;;;16.10;99.90;;;;;;5043242;28;20503;-77
2022/10/02 12:28:20;;;;;;;4.07;2.20;;;15.60;99.90;;;;;;5049962;28;20406;-77
2022/10/02 12:30:55;;;;;;;2.90;1.50;;;15.60;99.90;;;;;;5049580;28;20450;-77
2022/10/02 12:34:04;;;;;;;4.40;1.87;;;15.50;99.90;;;;;;5048338;28;20452;-77
2022/10/02 12:36:55;;;;;;;2.13;1.40;;;15.40;99.90;;;;;;5007975;28;20600;-80
2022/10/02 12:39:53;;;;;;;2.43;1.43;;;15.30;99.90;;;;;;5051480;28;20472;-78
2022/10/02 12:42:34;;;;;;;9.63;1.77;;;15.30;99.90;;;;;;5027576;28;20526;-78
2022/10/02 12:45:17;;;;;;;2.13;1.40;;;15.20;99.90;;;;;;5051989;28;20474;-78
2022/10/02 12:48:34;;;;;;;1.00;0.90;;;15.10;99.90;;;;;;5053898;28;20498;-79
2022/10/02 12:51:33;;;;;;;1.50;1.23;;;15.00;99.90;;;;;;5015783;28;20433;-78
2022/10/02 12:54:17;;;;;;;2.30;1.30;;;14.90;99.90;;;;;;4994832;28;20451;-77
2022/10/02 12:57:50;;;;;;;1.50;1.37;;;14.80;99.90;;;;;;5045226;28;20461;-77
2022/10/02 13:00:17;;;;;;;2.07;1.10;;;14.60;99.90;;;;;;5052406;28;20470;-77
2022/10/02 13:03:04;;;;;;;1.47;1.00;;;14.50;99.90;;;;;;5054237;28;20417;-78
2022/10/02 13:05:50;;;;;;;1.53;1.33;;;14.50;99.90;;;;;;5049816;28;20407;-76
2022/10/02 13:08:27;;;;;;;1.93;0.90;;;14.40;99.90;;;;;;5050595;28;20411;-78
2022/10/02 13:11:04;;;;;;;2.30;1.90;;;14.30;99.90;;;;;;5050280;28;20429;-78
2022/10/02 13:14:11;;;;;;;2.60;1.40;;;14.30;99.90;;;;;;5053848;28;20477;-78
2022/10/02 13:17:05;;;;;;;2.30;1.10;;;14.30;99.90;;;;;;5051583;28;20425;-79
2022/10/02 13:20:02;;;;;;;1.30;1.20;;;14.40;99.90;;;;;;5053100;28;20461;-80
2022/10/02 13:23:05;;;;;;;1.33;1.23;;;14.40;99.90;;;;;;5050739;28;20502;-79
2022/10/02 13:25:39;;;;;;;2.10;0.90;;;14.40;99.90;;;;;;5051602;28;20414;-78
2022/10/02 13:28:32;;;;;;;1.27;1.17;;;14.30;99.90;;;;;;5051691;28;20985;-78
2022/10/02 13:31:28;;;;;;;1.20;1.00;;;14.20;99.90;;;;;;5052675;28;20840;-79
2022/10/02 13:34:05;;;;;;;1.60;0.87;;;14.10;99.90;;;;;;5052162;28;20511;-78
2022/10/02 13:37:17;;;;;;;2.50;2.17;;;14.00;99.90;;;;;;5050841;28;20453;-78
2022/10/02 13:40:04;;;;;;;2.57;1.43;;;14.00;99.90;;;;;;5052137;28;20482;-77
2022/10/02 13:43:21;;;;;;;2.60;1.53;;;14.00;99.90;;;;;;5051354;28;20762;-77
2022/10/02 13:46:05;;;;;;;1.70;1.60;;;14.00;99.90;;;;;;5036849;28;20443;-77
2022/10/02 13:48:37;;;;;;;2.50;1.40;;;13.90;99.90;;;;;;5049845;28;20506;-78
2022/10/02 13:51:15;;;;;;;3.10;1.00;;;13.90;99.90;;;;;;5051394;28;20499;-78
2022/10/02 13:53:53;;;;;;;1.97;0.87;;;13.90;99.90;;;;;;5049732;28;20449;-76
2022/10/02 13:56:25;;;;;;;1.20;1.03;;;13.80;99.90;;;;;;5049449;28;20442;-77
2022/10/02 13:59:06;;;;;;;1.37;1.27;;;13.90;99.90;;;;;;5051199;28;20414;-78
2022/10/02 14:01:43;;;;;;;1.30;1.13;;;13.80;99.90;;;;;;5050877;28;20931;-77
2022/10/02 14:04:15;;;;;;;2.03;1.33;;;13.80;99.90;;;;;;5049906;28;21244;-76
2022/10/02 14:06:54;;;;;;;1.40;1.30;;;13.80;99.90;;;;;;5051751;28;20403;-77
2022/10/02 14:09:41;;;;;;;1.77;1.67;;;13.80;99.90;;;;;;5050178;28;20446;-77
2022/10/02 14:12:26;;;;;;;2.70;1.50;;;13.70;99.90;;;;;;5051558;28;20422;-77
2022/10/02 14:15:01;;;;;;;1.43;1.33;;;13.70;99.90;;;;;;5051011;28;20434;-78
2022/10/02 14:17:30;;;;;;;1.70;1.50;;;13.70;99.90;;;;;;5049789;28;20413;-78
2022/10/02 14:20:02;;;;;;;2.30;1.97;;;13.60;99.90;;;;;;5051019;28;21022;-77